Time;durP1;ratioP1;P1;durP2;ratioP2;P2;SDS_P1;SDS_P2;PMS_P1;PMS_P2;Temp;Humidity;BMP_temperature;BMP_pressure;BME280_temperature;BME280_humidity;BME280_pressure;Samples;Min_cycle;Max_cycle;Signal;HPM_P1;HPM_P2
2022/11/01 00:02:21;;;;;;;14.73;6.80;;;;;;;-141.28;100.00;49627.59;5129280;28;20206;-77
2022/11/01 00:04:48;;;;;;;19.93;7.00;;;;;;;-141.28;100.00;49627.59;5125930;27;20202;-79
2022/11/01 00:07:15;;;;;;;20.00;6.57;;;;;;;-141.28;100.00;49576.59;5134240;28;20313;-80
2022/11/01 00:09:45;;;;;;;16.47;7.20;;;;;;;-141.28;100.00;49639.38;5134472;28;20225;-76
2022/11/01 00:12:12;;;;;;;16.90;6.97;;;;;;;-141.28;100.00;49625.66;5134179;28;20199;-76
2022/11/01 00:14:39;;;;;;;18.43;6.33;;;;;;;-141.28;100.00;49611.91;5132628;28;20237;-75
2022/11/01 00:17:06;;;;;;;14.63;6.93;;;;;;;-141.28;100.00;49611.91;5133849;28;20556;-74
2022/11/01 00:19:33;;;;;;;12.67;6.47;;;;;;;-141.28;100.00;49619.75;5133836;28;20658;-78
2022/11/01 00:22:01;;;;;;;13.13;5.77;;;;;;;-141.28;100.00;49631.53;5121340;28;20205;-79
2022/11/01 00:24:29;;;;;;;14.70;6.40;;;;;;;-141.28;100.00;49662.94;5133934;28;20206;-76
2022/11/01 00:26:58;;;;;;;15.70;6.10;;;;;;;-141.28;100.00;49666.84;5135373;28;20230;-76
2022/11/01 00:29:25;;;;;;;13.33;5.77;;;;;;;-141.28;100.00;49643.31;5137256;28;20601;-77
2022/11/01 00:31:52;;;;;;;9.70;4.67;;;;;;;-141.28;100.00;49670.78;5136415;28;20202;-81
2022/11/01 00:34:19;;;;;;;13.47;5.60;;;;;;;-141.28;100.00;49686.47;5133744;28;20206;-77
2022/11/01 00:36:47;;;;;;;6.87;4.57;;;;;;;-141.28;100.00;49657.03;5134091;28;20614;-75
2022/11/01 00:39:15;;;;;;;8.77;4.90;;;;;;;-141.28;100.00;49655.09;5135031;28;20630;-75
2022/11/01 00:41:43;;;;;;;8.77;5.23;;;;;;;-141.28;100.00;49619.75;5132721;28;20274;-79
2022/11/01 00:44:11;;;;;;;13.07;5.67;;;;;;;-141.28;100.00;49655.09;5132899;27;20286;-75
2022/11/01 00:46:38;;;;;;;10.87;5.40;;;;;;;-141.28;100.00;49627.59;5123663;27;20229;-74
2022/11/01 00:49:05;;;;;;;11.53;6.17;;;;;;;-141.28;100.00;49627.59;5124043;27;20665;-75
2022/11/01 00:51:32;;;;;;;15.00;7.47;;;;;;;-141.28;100.00;49617.78;5136592;27;20194;-79
2022/11/01 00:53:59;;;;;;;16.37;7.10;;;;;;;-141.28;100.00;49578.56;5136278;27;20211;-76
2022/11/01 00:56:26;;;;;;;12.80;7.20;;;;;;;-141.28;100.00;49572.66;5136238;27;20194;-76
2022/11/01 00:58:53;;;;;;;15.70;7.50;;;;;;;-141.28;100.00;49555.00;5135839;27;20229;-75
2022/11/01 01:01:21;;;;;;;14.00;6.50;;;;;;;-141.28;100.00;49564.81;5135942;27;20209;-77
2022/11/01 01:03:48;;;;;;;15.10;6.73;;;;;;;-141.28;100.00;49555.00;5136074;27;20251;-78
2022/11/01 01:06:15;;;;;;;15.43;7.27;;;;;;;-141.28;100.00;49541.25;5136435;27;21460;-75
2022/11/01 01:08:42;;;;;;;15.03;7.40;;;;;;;-141.28;100.00;49492.22;5135879;27;20199;-78
2022/11/01 01:11:08;;;;;;;14.87;7.47;;;;;;;-141.28;100.00;49494.16;5136199;27;20247;-78
2022/11/01 01:13:35;;;;;;;12.60;6.83;;;;;;;-141.28;100.00;49494.16;5135718;27;20595;-76
2022/11/01 01:16:07;;;;;;;18.67;7.10;;;;;;;-141.28;100.00;49515.75;5135779;27;20259;-78
2022/11/01 01:18:36;;;;;;;11.57;6.53;;;;;;;-141.28;100.00;49470.63;5135953;27;20214;-78
2022/11/01 01:21:03;;;;;;;14.30;6.53;;;;;;;-141.28;100.00;49456.88;5135515;27;20209;-75
2022/11/01 01:23:32;;;;;;;16.53;6.93;;;;;;;-141.28;100.00;49474.53;5135212;27;20606;-76
2022/11/01 01:25:59;;;;;;;14.67;6.80;;;;;;;-141.28;100.00;49415.69;5135390;27;20226;-76
2022/11/01 01:28:26;;;;;;;15.67;6.73;;;;;;;-141.28;100.00;49445.13;5132853;27;20194;-76
2022/11/01 01:30:53;;;;;;;13.00;6.47;;;;;;;-141.28;100.00;49443.16;5125272;27;20671;-75
2022/11/01 01:33:22;;;;;;;13.37;6.90;;;;;;;-141.28;100.00;49392.13;5135771;27;20249;-76
2022/11/01 01:35:50;;;;;;;13.47;6.40;;;;;;;-141.28;100.00;49399.97;5135053;27;20205;-80
2022/11/01 01:38:17;;;;;;;11.67;6.77;;;;;;;-141.28;100.00;49392.13;5135118;27;20630;-75
2022/11/01 01:40:44;;;;;;;15.20;6.37;;;;;;;-141.28;100.00;49386.25;5135127;27;20247;-77
2022/11/01 01:43:12;;;;;;;14.03;6.43;;;;;;;-141.28;100.00;49366.63;5131419;27;20206;-75
2022/11/01 01:45:40;;;;;;;11.20;5.63;;;;;;;-141.28;100.00;49368.59;5126640;27;20195;-77
2022/11/01 01:48:12;;;;;;;17.10;6.43;;;;;;;-141.28;100.00;49364.66;5135684;27;20194;-77
2022/11/01 01:50:44;;;;;;;14.53;7.20;;;;;;;-141.28;100.00;49366.63;5135227;27;20729;-78
2022/11/01 01:53:17;;;;;;;10.80;6.27;;;;;;;-141.28;100.00;49384.28;5135675;27;20233;-76
2022/11/01 01:55:50;;;;;;;11.40;6.70;;;;;;;-141.28;100.00;49392.13;5137523;27;20202;-75
2022/11/01 01:58:19;;;;;;;13.23;6.77;;;;;;;-141.28;100.00;49366.63;5135244;27;20581;-75
2022/11/01 02:00:46;;;;;;;13.83;6.07;;;;;;;-141.28;100.00;49368.59;5135104;27;20668;-76
2022/11/01 02:03:14;;;;;;;11.97;5.60;;;;;;;-141.28;100.00;49352.88;5135111;27;20210;-76
2022/11/01 02:05:46;;;;;;;14.23;6.10;;;;;;;-141.28;100.00;49360.75;5130015;27;20655;-75
2022/11/01 02:08:25;;;;;;;14.70;6.67;;;;;;;-141.28;100.00;49360.75;5127296;27;20247;-77
2022/11/01 02:10:53;;;;;;;12.67;6.13;;;;;;;-141.28;100.00;49384.28;5122258;27;20212;-77
2022/11/01 02:13:20;;;;;;;8.90;5.33;;;;;;;-141.28;100.00;49343.06;5134622;27;20245;-79
2022/11/01 02:15:59;;;;;;;11.83;5.27;;;;;;;-141.28;100.00;49380.34;5134468;27;20692;-78
2022/11/01 02:18:35;;;;;;;13.10;5.37;;;;;;;-141.28;100.00;49392.13;5135128;27;20198;-80
2022/11/01 02:21:35;;;;;;;14.43;6.30;;;;;;;-141.28;100.00;49447.06;5134708;27;20191;-76
2022/11/01 02:24:37;;;;;;;14.03;5.27;;;;;;;-141.28;100.00;49476.50;5134694;27;20194;-76
2022/11/01 02:27:25;;;;;;;11.03;5.00;;;;;;;-141.28;100.00;49529.50;5134212;27;20233;-77
2022/11/01 02:30:13;;;;;;;7.87;5.23;;;;;;;-141.28;100.00;49517.72;5134071;27;20725;-76
2022/11/01 02:32:53;;;;;;;12.80;5.27;;;;;;;-141.28;100.00;49490.25;5134399;27;20254;-77
2022/11/01 02:35:26;;;;;;;12.83;4.97;;;;;;;-141.28;100.00;49454.94;5134102;27;20198;-76
2022/11/01 02:37:59;;;;;;;11.70;4.37;;;;;;;-141.28;100.00;49435.31;5134335;27;20193;-76
2022/11/01 02:40:33;;;;;;;11.77;5.00;;;;;;;-141.28;100.00;49427.44;5134176;27;20206;-78
2022/11/01 02:43:04;;;;;;;12.97;5.43;;;;;;;-141.28;100.00;49417.63;5134121;27;20198;-78
2022/11/01 02:45:35;;;;;;;14.07;4.90;;;;;;;-141.28;100.00;49388.22;5134499;27;20262;-76
2022/11/01 02:48:06;;;;;;;9.90;4.83;;;;;;;-141.28;100.00;49407.84;5134374;27;20298;-76
2022/11/01 02:50:37;;;;;;;11.63;4.97;;;;;;;-141.28;100.00;49396.06;5134581;27;20210;-80
2022/11/01 02:53:05;;;;;;;12.20;5.63;;;;;;;-141.28;100.00;49360.75;5133122;27;20194;-77
2022/11/01 02:55:33;;;;;;;13.67;5.70;;;;;;;-141.28;100.00;49368.59;5133650;27;20262;-78
2022/11/01 02:58:03;;;;;;;12.13;6.10;;;;;;;-141.28;100.00;49352.88;5121377;27;20277;-77
2022/11/01 03:00:33;;;;;;;11.93;6.80;;;;;;;-141.28;100.00;49339.16;5133963;27;20255;-78
2022/11/01 03:03:13;;;;;;;16.00;7.83;;;;;;;-141.28;100.00;49364.66;5134130;27;20287;-76
2022/11/01 03:05:49;;;;;;;14.40;8.27;;;;;;;-141.28;100.00;49360.75;5134097;27;20213;-76
2022/11/01 03:08:21;;;;;;;16.80;7.17;;;;;;;-141.28;100.00;49368.59;5133450;27;20201;-75
2022/11/01 03:10:55;;;;;;;14.30;6.87;;;;;;;-141.28;100.00;49368.59;5137713;27;20194;-76
2022/11/01 03:13:31;;;;;;;16.57;6.60;;;;;;;-141.28;100.00;49360.75;5136224;27;20225;-76
2022/11/01 03:16:18;;;;;;;12.10;6.57;;;;;;;-141.28;100.00;49392.13;5139939;27;20194;-75
2022/11/01 03:18:58;;;;;;;11.83;6.97;;;;;;;-141.28;100.00;49384.28;5140369;27;20561;-76
2022/11/01 03:21:28;;;;;;;12.20;7.03;;;;;;;-141.28;100.00;49360.75;5120608;27;20225;-76
2022/11/01 03:24:01;;;;;;;15.40;7.43;;;;;;;-141.28;100.00;49345.03;5133354;27;20198;-76
2022/11/01 03:26:33;;;;;;;17.03;7.07;;;;;;;-141.28;100.00;49352.88;5122031;27;20218;-75
2022/11/01 03:29:06;;;;;;;15.43;6.73;;;;;;;-141.28;100.00;49341.13;5132958;27;20294;-78
2022/11/01 03:31:37;;;;;;;20.87;7.30;;;;;;;-141.28;100.00;49315.59;5133631;28;20204;-77
2022/11/01 03:34:12;;;;;;;15.70;7.37;;;;;;;-141.28;100.00;49319.53;5134615;28;20251;-77
2022/11/01 03:36:43;;;;;;;19.87;6.80;;;;;;;-141.28;100.00;49325.41;5133644;28;20200;-76
2022/11/01 03:39:15;;;;;;;17.53;7.80;;;;;;;-141.28;100.00;49295.97;5133797;28;20201;-79
2022/11/01 03:41:44;;;;;;;15.67;6.87;;;;;;;-141.28;100.00;49315.59;5134466;28;20202;-77
2022/11/01 03:44:13;;;;;;;16.03;7.57;;;;;;;-141.28;100.00;49317.56;5134204;28;20205;-79
2022/11/01 03:46:40;;;;;;;13.87;7.47;;;;;;;-141.28;100.00;49309.72;5134295;28;20221;-76
2022/11/01 03:49:09;;;;;;;19.57;7.83;;;;;;;-141.28;100.00;49307.75;5133878;28;20262;-76
2022/11/01 03:51:36;;;;;;;19.80;8.27;;;;;;;-141.28;100.00;49294.03;5133536;28;20206;-77
2022/11/01 03:54:05;;;;;;;13.50;8.10;;;;;;;-141.28;100.00;49294.03;5134206;28;20198;-74
2022/11/01 03:56:32;;;;;;;15.23;8.53;;;;;;;-141.28;100.00;49301.88;5133261;28;20205;-76
2022/11/01 03:58:58;;;;;;;15.90;8.30;;;;;;;-141.28;100.00;49290.09;5132615;28;20206;-78
2022/11/01 04:01:25;;;;;;;21.37;8.73;;;;;;;-141.28;100.00;49303.84;5133283;28;20194;-76
2022/11/01 04:03:52;;;;;;;16.80;8.83;;;;;;;-141.28;100.00;49274.41;5132621;28;20198;-76
2022/11/01 04:06:20;;;;;;;20.97;8.03;;;;;;;-141.28;100.00;49290.09;5133277;27;20291;-76
2022/11/01 04:08:47;;;;;;;18.23;9.10;;;;;;;-141.28;100.00;49282.25;5132937;28;20250;-76
2022/11/01 04:11:14;;;;;;;20.93;8.97;;;;;;;-141.28;100.00;49282.25;5133222;28;20661;-78
2022/11/01 04:13:42;;;;;;;18.03;8.13;;;;;;;-141.28;100.00;49290.09;5132672;28;20315;-78
2022/11/01 04:21:53;;;;;;;16.80;9.27;;;;;;;-141.28;100.00;49364.66;5073323;28;20199;-76
2022/11/01 04:24:21;;;;;;;19.47;9.67;;;;;;;-141.28;100.00;49315.59;5109026;27;20202;-79
2022/11/01 04:26:49;;;;;;;30.80;11.87;;;;;;;-141.28;100.00;49301.88;5136603;27;20221;-78
2022/11/01 04:29:16;;;;;;;25.87;12.60;;;;;;;-141.28;100.00;49284.22;5136523;27;20205;-76
2022/11/01 04:31:42;;;;;;;29.53;11.93;;;;;;;-141.28;100.00;49280.28;5137920;27;20631;-77
2022/11/01 04:34:09;;;;;;;25.43;11.10;;;;;;;-141.28;100.00;49274.41;5136901;27;20210;-75
2022/11/01 04:36:37;;;;;;;26.07;10.93;;;;;;;-141.28;100.00;49270.47;5136888;27;20213;-78
2022/11/01 04:39:07;;;;;;;29.57;10.40;;;;;;;-141.28;100.00;49288.13;5136623;27;20348;-79
2022/11/01 04:41:34;;;;;;;22.77;9.80;;;;;;;-141.28;100.00;49278.31;5135861;27;20285;-76
2022/11/01 04:44:01;;;;;;;20.10;9.53;;;;;;;-141.28;100.00;49278.31;5136562;27;20554;-79
2022/11/01 04:46:30;;;;;;;17.43;8.97;;;;;;;-141.28;100.00;49282.25;5136227;27;20217;-79
2022/11/01 04:48:58;;;;;;;23.67;9.97;;;;;;;-141.28;100.00;49284.22;5136138;27;20529;-76
2022/11/01 04:51:25;;;;;;;26.67;10.47;;;;;;;-141.28;100.00;49278.31;5122754;27;20668;-75
2022/11/01 04:53:52;;;;;;;24.67;10.03;;;;;;;-141.28;100.00;49274.41;5136060;27;20294;-79
2022/11/01 04:56:22;;;;;;;27.13;10.47;;;;;;;-141.28;100.00;49301.88;5136048;27;20198;-78
2022/11/01 04:58:49;;;;;;;26.33;10.07;;;;;;;-141.28;100.00;49268.50;5135441;27;20199;-77
2022/11/01 05:01:15;;;;;;;27.13;11.63;;;;;;;-141.28;100.00;49270.47;5135839;27;20262;-79
2022/11/01 05:03:43;;;;;;;27.43;11.23;;;;;;;-141.28;100.00;49262.63;5135691;27;20259;-75
2022/11/01 05:06:11;;;;;;;25.93;10.53;;;;;;;-141.28;100.00;49270.47;5136039;27;20222;-80
2022/11/01 05:08:38;;;;;;;30.43;11.97;;;;;;;-141.28;100.00;49290.09;5135491;27;20241;-76
2022/11/01 05:11:06;;;;;;;32.63;11.80;;;;;;;-141.28;100.00;49284.22;5135867;27;20206;-77
2022/11/01 05:13:35;;;;;;;25.40;12.40;;;;;;;-141.28;100.00;49294.03;5136026;27;20230;-75
2022/11/01 05:16:02;;;;;;;45.00;13.57;;;;;;;-141.28;100.00;49274.41;5137477;27;20226;-76
2022/11/01 05:18:30;;;;;;;31.77;13.47;;;;;;;-141.28;100.00;49305.78;5136474;27;20198;-77
2022/11/01 05:20:57;;;;;;;41.70;13.87;;;;;;;-141.28;100.00;49311.69;5123609;27;20202;-77
2022/11/01 05:23:24;;;;;;;27.43;13.17;;;;;;;-141.28;100.00;49327.38;5139745;27;20259;-77
2022/11/01 05:25:51;;;;;;;26.97;12.60;;;;;;;-141.28;100.00;49356.81;5136473;27;20243;-78
2022/11/01 05:28:18;;;;;;;84.73;13.97;;;;;;;-141.28;100.00;49419.59;5134780;27;20621;-76
2022/11/01 05:30:46;;;;;;;67.03;15.17;;;;;;;-141.28;100.00;49474.53;5134417;27;20247;-77
2022/11/01 05:33:13;;;;;;;36.53;11.20;;;;;;;-141.28;100.00;49521.63;5135231;27;20198;-76
2022/11/01 05:35:40;;;;;;;42.47;12.87;;;;;;;-141.28;100.00;49545.19;5133003;27;20194;-76
2022/11/01 05:38:07;;;;;;;37.30;13.37;;;;;;;-141.28;100.00;49572.66;5123808;27;20206;-76
2022/11/01 05:40:34;;;;;;;43.97;12.20;;;;;;;-141.28;100.00;49509.88;5135206;27;20205;-76
2022/11/01 05:43:01;;;;;;;31.43;11.23;;;;;;;-141.28;100.00;49462.78;5135387;27;20199;-78
2022/11/01 05:45:28;;;;;;;40.83;11.73;;;;;;;-141.28;100.00;49496.13;5135323;27;20210;-76
2022/11/01 05:48:01;;;;;;;27.60;10.87;;;;;;;-141.28;100.00;50287.03;5136281;27;20279;-76
2022/11/01 05:50:28;;;;;;;26.20;9.90;;;;;;;-141.28;100.00;50455.84;5135010;27;20738;-76
2022/11/01 05:52:55;;;;;;;33.43;11.93;;;;;;;-141.28;100.00;50446.03;5133584;27;20617;-76
2022/11/01 05:55:22;;;;;;;38.63;11.40;;;;;;;-141.28;100.00;50296.84;5133843;27;20251;-77
2022/11/01 05:57:50;;;;;;;25.50;10.30;;;;;;;-141.28;100.00;50035.81;5133849;27;20202;-79
2022/11/01 06:00:17;;;;;;;25.53;10.77;;;;;;;-141.28;100.00;49941.59;5133959;27;20281;-77
2022/11/01 06:02:44;;;;;;;35.17;11.43;;;;;;;-141.28;100.00;49796.38;5133699;27;20251;-78
2022/11/01 06:05:12;;;;;;;50.03;10.37;;;;;;;-141.28;100.00;49990.66;5134024;27;20210;-75
2022/11/01 06:07:39;;;;;;;46.57;11.60;;;;;;;-141.28;100.00;49788.53;5133828;27;20229;-77
2022/11/01 06:10:07;;;;;;;40.53;11.73;;;;;;;-141.28;100.00;49721.81;5133565;27;20652;-76
2022/11/01 06:12:34;;;;;;;41.57;12.63;;;;;;;-141.28;100.00;49800.31;5132404;27;20202;-75
2022/11/01 06:15:00;;;;;;;52.47;13.50;;;;;;;-141.28;100.00;49949.44;5133299;27;20266;-77
2022/11/01 06:17:27;;;;;;;38.00;13.27;;;;;;;-141.28;100.00;50071.13;5133185;27;20677;-79
2022/11/01 06:19:54;;;;;;;40.17;12.80;;;;;;;-141.28;100.00;50279.19;5133203;27;20194;-78
2022/11/01 06:22:23;;;;;;;43.00;12.33;;;;;;;-141.28;100.00;50351.81;5133496;27;20669;-75
2022/11/01 06:24:50;;;;;;;32.27;11.67;;;;;;;-141.28;100.00;50412.66;5133416;27;20202;-76
2022/11/01 06:27:17;;;;;;;23.53;11.33;;;;;;;-141.28;100.00;50449.94;5134767;27;20222;-75
2022/11/01 06:29:44;;;;;;;27.93;11.37;;;;;;;-141.28;100.00;50510.78;5133374;27;20214;-76
2022/11/01 06:32:11;;;;;;;22.83;10.67;;;;;;;-141.28;100.00;50510.78;5133263;27;20206;-76
2022/11/01 06:34:37;;;;;;;22.33;10.53;;;;;;;-141.28;100.00;50530.41;5133419;27;20202;-76
2022/11/01 06:37:04;;;;;;;29.97;11.20;;;;;;;-141.28;100.00;50534.34;5133373;27;20209;-78
2022/11/01 06:39:32;;;;;;;21.60;9.87;;;;;;;-141.28;100.00;50530.41;5133008;27;20209;-78
2022/11/01 06:42:00;;;;;;;31.37;11.50;;;;;;;-141.28;100.00;50463.69;5132977;27;20266;-77
2022/11/01 06:44:28;;;;;;;25.63;12.20;;;;;;;-141.28;100.00;50475.47;5132755;27;20198;-79
2022/11/01 06:46:55;;;;;;;28.40;11.27;;;;;;;-141.28;100.00;50436.19;5132935;27;20202;-76
2022/11/01 06:49:22;;;;;;;27.60;12.97;;;;;;;-141.28;100.00;50424.44;5132581;27;20739;-79
2022/11/01 06:51:49;;;;;;;29.67;11.87;;;;;;;-141.28;100.00;50440.13;5133186;27;20206;-77
2022/11/01 06:54:16;;;;;;;30.70;12.07;;;;;;;-141.28;100.00;50338.06;5132764;27;20325;-77
2022/11/01 06:56:46;;;;;;;28.97;11.73;;;;;;;-141.28;100.00;50408.72;5132820;27;20205;-76
2022/11/01 06:59:13;;;;;;;29.20;12.50;;;;;;;-141.28;100.00;50369.47;5132356;27;20289;-79
2022/11/01 07:01:40;;;;;;;25.10;12.70;;;;;;;-141.28;100.00;50347.88;5132820;27;20229;-75
2022/11/01 07:04:07;;;;;;;32.90;13.53;;;;;;;-141.28;100.00;50269.38;5132838;27;20658;-76
2022/11/01 07:06:34;;;;;;;31.23;13.30;;;;;;;-141.28;100.00;50220.28;5134493;27;20218;-78
2022/11/01 07:09:02;;;;;;;37.27;16.23;;;;;;;-141.28;100.00;50196.75;5119253;27;20282;-79
2022/11/01 07:11:29;;;;;;;53.77;20.03;;;;;;;-141.28;100.00;50259.56;5132449;27;20217;-76
2022/11/01 07:13:58;;;;;;;33.23;16.87;;;;;;;-141.28;100.00;50137.88;5131652;27;20264;-79
2022/11/01 07:16:24;;;;;;;35.73;14.63;;;;;;;-141.28;100.00;50110.38;5132679;27;20229;-78
2022/11/01 07:18:52;;;;;;;28.93;12.40;;;;;;;-141.28;100.00;50082.91;5132333;27;20194;-77
2022/11/01 07:21:19;;;;;;;26.47;12.83;;;;;;;-141.28;100.00;50020.09;5132463;27;20703;-76
2022/11/01 07:23:47;;;;;;;30.97;13.37;;;;;;;-141.28;100.00;49916.09;5132062;27;20198;-76
2022/11/01 07:26:14;;;;;;;23.70;12.23;;;;;;;-141.28;100.00;49768.91;5132054;27;20255;-75
2022/11/01 07:28:41;;;;;;;31.77;12.97;;;;;;;-141.28;100.00;49761.06;5131819;27;20221;-79
2022/11/01 07:31:10;;;;;;;27.63;12.90;;;;;;;-141.28;100.00;49733.56;5131992;27;20198;-77
2022/11/01 07:33:36;;;;;;;27.87;11.93;;;;;;;-141.28;100.00;49639.38;5132407;28;20645;-79
2022/11/01 07:36:04;;;;;;;32.80;11.07;;;;;;;-141.28;100.00;49657.03;5132080;28;20198;-77
2022/11/01 07:38:32;;;;;;;29.53;10.77;;;;;;;-141.28;100.00;49766.94;5131595;28;20210;-79
2022/11/01 07:40:59;;;;;;;31.13;11.77;;;;;;;-141.28;100.00;49702.19;5132213;28;20194;-80
2022/11/01 07:43:26;;;;;;;21.93;10.53;;;;;;;-141.28;100.00;49706.09;5142879;28;20209;-75
2022/11/01 07:45:53;;;;;;;28.50;10.60;;;;;;;-141.28;100.00;49635.47;5145596;28;20198;-76
2022/11/01 07:48:21;;;;;;;31.53;11.00;;;;;;;-141.28;100.00;49490.25;5137043;28;20229;-76
2022/11/01 07:50:48;;;;;;;26.77;9.87;;;;;;;-141.28;100.00;49403.91;5133874;28;20202;-76
2022/11/01 07:53:17;;;;;;;25.73;10.63;;;;;;;-141.28;100.00;49372.50;5135585;27;20662;-77
2022/11/01 07:55:45;;;;;;;30.63;10.57;;;;;;;-141.28;100.00;49384.28;5137255;27;20198;-77
2022/11/01 07:58:13;;;;;;;33.77;10.97;;;;;;;-141.28;100.00;49376.44;5136493;27;20213;-80
2022/11/01 08:00:40;;;;;;;26.67;10.90;;;;;;;-141.28;100.00;49374.47;5136052;27;20210;-76
2022/11/01 08:03:09;;;;;;;24.23;11.27;;;;;;;-141.28;100.00;49294.03;5135645;27;20706;-77
2022/11/01 08:05:38;;;;;;;27.17;9.00;;;;;;;-141.28;100.00;49282.25;5136224;27;20218;-77
2022/11/01 08:08:06;;;;;;;28.83;9.70;;;;;;;-141.28;100.00;49282.25;5135467;27;20226;-77
2022/11/01 08:10:34;;;;;;;32.47;10.97;;;;;;;-141.28;100.00;49264.59;5136162;27;20255;-79
2022/11/01 08:13:02;;;;;;;29.63;10.13;;;;;;;-141.28;100.00;49203.75;5136049;27;20336;-78
2022/11/01 08:15:30;;;;;;;26.67;9.60;;;;;;;-141.28;100.00;49309.72;5136230;27;20417;-79
2022/11/01 08:17:57;;;;;;;25.63;9.33;;;;;;;-141.28;100.00;49125.28;5135925;27;20255;-76
2022/11/01 08:20:24;;;;;;;25.23;10.30;;;;;;;-141.28;100.00;49323.44;5136128;27;20312;-79
2022/11/01 08:22:53;;;;;;;36.93;10.33;;;;;;;-141.28;100.00;49352.88;5135481;27;20243;-77
2022/11/01 08:25:22;;;;;;;23.87;9.67;;;;;;;-141.28;100.00;49386.25;5137872;27;20202;-78
2022/11/01 08:27:49;;;;;;;21.37;9.53;;;;;;;-141.28;100.00;49396.06;5135349;27;20304;-76
2022/11/01 08:30:19;;;;;;;29.17;9.47;;;;;;;-141.28;100.00;49470.63;5135404;27;20198;-76
2022/11/01 08:32:46;;;;;;;31.70;9.30;;;;;;;-141.28;100.00;49352.88;5135696;27;20247;-76
2022/11/01 08:35:13;;;;;;;32.87;10.07;;;;;;;-141.28;100.00;49411.75;5135273;27;20199;-75
2022/11/01 08:37:48;;;;;;;23.40;9.70;;;;;;;-141.28;100.00;49494.16;5135820;27;20259;-76
2022/11/01 08:40:16;;;;;;;28.20;9.93;;;;;;;-141.28;100.00;49474.53;5135428;27;20194;-78
2022/11/01 08:42:43;;;;;;;23.30;10.03;;;;;;;-141.28;100.00;49464.72;5135321;27;20259;-77
2022/11/01 08:45:11;;;;;;;23.30;9.40;;;;;;;-141.28;100.00;49513.78;5135170;27;20251;-78
2022/11/01 08:47:38;;;;;;;32.03;9.33;;;;;;;-141.28;100.00;49490.25;5135367;27;20284;-76
2022/11/01 08:50:06;;;;;;;26.83;9.37;;;;;;;-141.28;100.00;49604.06;5134422;27;20216;-80
2022/11/01 08:52:34;;;;;;;26.37;9.67;;;;;;;-141.28;100.00;49662.94;5135235;27;20582;-77
2022/11/01 08:55:02;;;;;;;29.93;9.20;;;;;;;-141.28;100.00;49706.09;5135254;27;20206;-76
2022/11/01 08:57:30;;;;;;;21.30;9.53;;;;;;;-141.28;100.00;49684.53;5134759;27;20653;-76
2022/11/01 08:59:57;;;;;;;24.90;10.43;;;;;;;-141.28;100.00;49623.69;5134708;27;20202;-78
2022/11/01 09:02:24;;;;;;;25.73;9.17;;;;;;;-141.28;100.00;49588.34;5134386;27;20573;-77
2022/11/01 09:04:51;;;;;;;26.40;9.27;;;;;;;-141.28;100.00;49588.34;5134849;27;20202;-77
2022/11/01 09:07:19;;;;;;;32.90;9.90;;;;;;;-141.28;100.00;49576.59;5134455;27;20660;-75
2022/11/01 09:09:46;;;;;;;26.93;9.40;;;;;;;-141.28;100.00;49568.75;5134694;27;20246;-77
2022/11/01 09:12:13;;;;;;;21.87;8.40;;;;;;;-141.28;100.00;49498.09;5134468;27;20695;-76
2022/11/01 09:14:41;;;;;;;30.00;9.27;;;;;;;-141.28;100.00;49449.03;5134982;27;20306;-79
2022/11/01 09:17:09;;;;;;;19.80;8.83;;;;;;;-141.28;100.00;49364.66;5134808;27;20194;-77
2022/11/01 09:19:36;;;;;;;20.30;9.03;;;;;;;-141.28;100.00;49325.41;5134979;27;20203;-77
2022/11/01 09:22:02;;;;;;;20.93;9.20;;;;;;;-141.28;100.00;49254.78;5134408;27;20217;-74
2022/11/01 09:24:31;;;;;;;26.43;9.10;;;;;;;-141.28;100.00;49292.06;5134955;27;20293;-76
2022/11/01 09:27:00;;;;;;;29.47;8.47;;;;;;;-141.28;100.00;49274.41;5134528;27;20625;-77
2022/11/01 09:29:27;;;;;;;25.33;8.57;;;;;;;-141.28;100.00;49201.81;5134547;27;20226;-77
2022/11/01 09:31:56;;;;;;;34.60;9.47;;;;;;;-141.28;100.00;49190.03;5134253;27;20729;-75
2022/11/01 09:34:23;;;;;;;25.30;9.00;;;;;;;-141.28;100.00;49160.59;5134346;27;20206;-76
2022/11/01 09:36:50;;;;;;;31.53;10.70;;;;;;;-141.28;100.00;49172.38;5134091;27;20219;-76
2022/11/01 09:39:20;;;;;;;29.07;9.00;;;;;;;-141.28;100.00;49168.44;5134671;27;20251;-76
2022/11/01 09:41:52;;;;;;;24.27;8.63;;;;;;;-141.28;100.00;49148.81;5139598;27;20213;-76
2022/11/01 09:44:25;;;;;;;25.10;9.60;;;;;;;-141.28;100.00;49160.59;5134593;27;20279;-77
2022/11/01 09:46:58;;;;;;;42.50;9.33;;;;;;;-141.28;100.00;49125.28;5134410;27;20618;-76
2022/11/01 09:49:30;;;;;;;19.27;8.70;;;;;;;-141.28;100.00;49062.50;5134316;27;20317;-76
2022/11/01 09:51:58;;;;;;;24.97;9.20;;;;;;;-141.28;100.00;49109.59;5134066;27;20202;-77
2022/11/01 09:54:27;;;;;;;14.90;7.47;;;;;;;-141.28;96.46;49084.06;5133588;27;20213;-77
2022/11/01 09:57:05;;;;;;;23.57;8.17;;;;;;;-141.28;93.44;49088.00;5133920;27;20560;-76
2022/11/01 09:59:42;;;;;;;23.90;8.53;;;;;;;-141.28;88.19;49054.66;5120639;27;20204;-75
2022/11/01 10:02:33;;;;;;;24.27;9.17;;;;;;;-141.28;85.55;49062.50;5133642;27;20199;-75
2022/11/01 10:05:12;;;;;;;21.83;7.87;;;;;;;-141.28;85.66;49035.03;5133893;27;20205;-77
2022/11/01 10:07:50;;;;;;;23.80;8.30;;;;;;;-141.28;82.03;49062.50;5120751;27;20222;-76
2022/11/01 10:10:29;;;;;;;19.93;8.43;;;;;;;-141.28;90.50;49101.72;5133599;27;20262;-79
2022/11/01 10:13:11;;;;;;;21.87;7.70;;;;;;;-141.28;89.58;49074.25;5133307;27;20723;-76
2022/11/01 10:15:49;;;;;;;23.10;8.00;;;;;;;-141.28;87.51;49062.50;5133306;27;20243;-76
2022/11/01 10:18:27;;;;;;;18.40;7.80;;;;;;;-141.28;80.37;49027.19;5133259;27;20653;-76
2022/11/01 10:20:59;;;;;;;20.53;7.53;;;;;;;-141.28;79.06;48987.94;5133639;27;20647;-80
2022/11/01 10:23:40;;;;;;;20.40;8.40;;;;;;;-141.28;72.46;48968.31;5132618;27;20227;-76
2022/11/01 10:26:12;;;;;;;23.00;7.50;;;;;;;-141.28;70.63;48991.84;5133404;27;20201;-76
2022/11/01 10:28:46;;;;;;;15.57;7.23;;;;;;;-141.28;72.84;49038.94;5133249;27;20221;-78
2022/11/01 10:31:18;;;;;;;20.03;7.30;;;;;;;-141.28;74.27;49025.22;5133045;27;20208;-75
2022/11/01 10:33:53;;;;;;;20.10;7.07;;;;;;;-141.28;74.31;49003.63;5133165;27;20206;-78
2022/11/01 10:36:26;;;;;;;22.93;7.53;;;;;;;-141.28;70.80;48933.00;5133091;27;20581;-78
2022/11/01 10:38:57;;;;;;;18.50;7.27;;;;;;;-141.28;73.53;48984.00;5133088;27;20212;-80
2022/11/01 10:41:31;;;;;;;24.73;8.20;;;;;;;-141.28;71.30;48978.13;5132296;27;20206;-83
2022/11/01 10:44:02;;;;;;;17.13;8.10;;;;;;;-141.28;69.93;48995.78;5133066;27;20657;-77
2022/11/01 10:46:33;;;;;;;21.77;8.50;;;;;;;-141.28;70.97;48995.78;5132848;27;20194;-78
2022/11/01 10:49:11;;;;;;;15.47;7.63;;;;;;;-141.28;73.41;48995.78;5132697;27;20271;-79
2022/11/01 10:51:43;;;;;;;16.10;7.50;;;;;;;-141.28;72.50;49011.47;5132799;27;20531;-79
2022/11/01 10:54:18;;;;;;;22.13;9.30;;;;;;;-141.28;70.33;49001.66;5132598;27;20582;-75
2022/11/01 10:56:48;;;;;;;19.60;8.63;;;;;;;-141.28;70.98;48962.44;5119263;27;20259;-74
2022/11/01 10:59:20;;;;;;;18.80;8.77;;;;;;;-141.28;70.33;48987.94;5135157;27;20255;-77
2022/11/01 11:01:51;;;;;;;19.00;8.90;;;;;;;-141.28;71.47;48999.72;5133169;27;20199;-78
2022/11/01 11:04:22;;;;;;;20.80;8.67;;;;;;;-141.28;72.02;49011.47;5132749;27;20206;-76
2022/11/01 11:06:50;;;;;;;33.13;9.60;;;;;;;-141.28;69.69;48999.72;5133104;27;20652;-77
2022/11/01 11:09:24;;;;;;;18.43;9.03;;;;;;;-141.28;70.49;48995.78;5131888;27;20250;-77
2022/11/01 11:11:55;;;;;;;21.47;8.60;;;;;;;-141.28;68.21;48964.38;5132451;27;20626;-78
2022/11/01 11:14:22;;;;;;;22.67;8.60;;;;;;;-141.28;64.69;48917.31;5132097;27;20229;-77
2022/11/01 11:16:53;;;;;;;18.40;8.80;;;;;;;-141.28;63.68;48929.06;5132624;27;20595;-76